Saltar para o conteúdo principal

Sagres

ID 1200533 · 37.0128, -8.9491 mapa

Última leitura · 2026-05-09 19:00 (Europe/Lisbon)

Temperatura
17.5 °C
Humidade
71 %
Pressão
1,009.9 hPa
Precipitação
0.0 mm
Radiação
Velocidade do vento
Direcção do vento
Sem vento

Histórico de 24 horas

Hora (Europe/Lisbon) Temperatura Humidade Pressão Chuva Vento Direcção
2026-05-09 19:00 17.5 °C 71 % 1,009.9 0.0 mm
2026-05-09 18:00 17.4 °C 70 % 1,009.5 0.0 mm
2026-05-09 17:00 17.8 °C 68 % 1,009.1 0.0 mm
2026-05-09 16:00 18.9 °C 66 % 1,009.0 0.0 mm
2026-05-09 15:00 19.1 °C 64 % 1,008.6 0.0 mm
2026-05-09 14:00 19.0 °C 69 % 1,008.0 0.0 mm
2026-05-09 13:00 18.1 °C 68 % 1,007.7 0.0 mm
2026-05-09 12:00 17.9 °C 65 % 1,007.3 0.0 mm
2026-05-09 11:00 17.4 °C 67 % 1,006.5 0.0 mm
2026-05-09 10:00 16.3 °C 73 % 1,005.7 0.0 mm
2026-05-09 09:00 15.3 °C 87 % 1,004.8 0.0 mm
2026-05-09 08:00 14.2 °C 93 % 1,003.8 0.6 mm
2026-05-09 07:00 14.0 °C 90 % 1,003.2 2.7 mm
2026-05-09 06:00 14.2 °C 85 % 1,003.5 10.3 mm
2026-05-09 05:00 15.7 °C 79 % 1,004.1 2.1 mm
2026-05-09 04:00 16.5 °C 76 % 1,004.5 0.2 mm
2026-05-09 03:00 16.1 °C 78 % 1,005.3 0.0 mm
2026-05-09 02:00 15.7 °C 82 % 1,006.1 0.0 mm
2026-05-09 01:00 15.3 °C 83 % 1,006.8 0.0 mm
2026-05-09 00:00 15.2 °C 81 % 1,007.2 0.0 mm
2026-05-08 23:00 14.9 °C 81 % 1,007.5 0.0 mm
2026-05-08 22:00 14.2 °C 86 % 1,007.5 0.0 mm
2026-05-08 21:00 13.5 °C 88 % 1,007.5 3.7 mm
2026-05-08 20:00 15.5 °C 76 % 1,007.7 4.2 mm